createdAt,value
2018-07-27T00:01:02.158Z,20.20
2018-07-27T00:03:30.998Z,20.10
2018-07-27T00:05:59.827Z,20.00
2018-07-27T00:08:28.766Z,20.00
2018-07-27T00:10:57.640Z,20.10
2018-07-27T00:13:27.434Z,20.20
2018-07-27T00:15:56.366Z,20.20
2018-07-27T00:18:25.254Z,20.20
2018-07-27T00:20:54.127Z,20.30
2018-07-27T00:23:23.014Z,20.30
2018-07-27T00:25:55.546Z,20.30
2018-07-27T00:28:24.342Z,20.40
2018-07-27T00:30:53.254Z,20.40
2018-07-27T00:33:23.204Z,20.30
2018-07-27T00:35:52.047Z,20.10
2018-07-27T00:38:25.874Z,19.90
2018-07-27T00:41:01.360Z,19.80
2018-07-27T00:43:30.222Z,19.70
2018-07-27T00:45:59.114Z,19.60
2018-07-27T00:48:28.003Z,19.80
2018-07-27T00:50:57.891Z,19.80
2018-07-27T00:53:32.211Z,19.90
2018-07-27T00:56:01.046Z,19.90
2018-07-27T00:58:31.910Z,20.00
2018-07-27T01:01:00.839Z,20.00
2018-07-27T01:03:39.670Z,19.90
2018-07-27T01:06:12.963Z,19.90
2018-07-27T01:08:46.990Z,19.90
2018-07-27T01:11:19.079Z,19.90
2018-07-27T01:13:49.966Z,19.90
2018-07-27T01:16:23.954Z,19.80
2018-07-27T01:18:53.803Z,19.80
2018-07-27T01:21:29.214Z,19.90
2018-07-27T01:24:05.150Z,19.90
2018-07-27T01:26:35.051Z,19.80
2018-07-27T01:31:37.350Z,19.60
2018-07-27T01:34:12.582Z,19.50
2018-07-27T01:36:41.374Z,19.40
2018-07-27T01:39:14.358Z,19.30
2018-07-27T01:41:45.158Z,19.30
2018-07-27T01:44:13.990Z,19.20
2018-07-27T01:46:43.838Z,19.20
2018-07-27T01:49:12.707Z,19.20
2018-07-27T01:51:47.864Z,19.10
2018-07-27T01:54:16.685Z,19.00
2018-07-27T01:57:03.966Z,19.00
2018-07-27T01:59:42.377Z,18.90
2018-07-27T02:02:13.197Z,18.80
2018-07-27T02:04:43.018Z,18.70
2018-07-27T02:07:16.273Z,18.70
2018-07-27T02:09:47.165Z,18.60
2018-07-27T02:12:17.070Z,18.60
2018-07-27T02:14:45.957Z,18.50
2018-07-27T02:17:17.785Z,18.40
2018-07-27T02:19:46.681Z,18.30
2018-07-27T02:22:15.649Z,18.30
2018-07-27T02:24:44.462Z,18.30
2018-07-27T02:27:15.354Z,18.40
2018-07-27T02:29:49.205Z,18.60
2018-07-27T02:32:18.020Z,18.80
2018-07-27T02:34:46.882Z,18.80
2018-07-27T02:37:16.798Z,19.00
2018-07-27T02:39:45.670Z,19.20
2018-07-27T02:42:16.508Z,19.40
2018-07-27T02:44:47.378Z,19.40
2018-07-27T02:47:16.290Z,19.50
2018-07-27T02:49:47.130Z,19.40
2018-07-27T02:52:17.938Z,19.40
2018-07-27T02:54:52.878Z,19.30
2018-07-27T02:57:27.822Z,19.30
2018-07-27T03:02:26.154Z,19.40
2018-07-27T03:04:57.078Z,19.40
2018-07-27T03:07:25.913Z,19.40
2018-07-27T03:09:54.845Z,19.30
2018-07-27T03:12:23.680Z,19.30
2018-07-27T03:14:52.501Z,19.30
2018-07-27T03:17:23.343Z,19.20
2018-07-27T03:19:53.253Z,19.10
2018-07-27T03:22:23.122Z,19.00
2018-07-27T03:24:51.959Z,18.90
2018-07-27T03:27:24.157Z,18.80
2018-07-27T03:29:53.030Z,18.60
2018-07-27T03:32:22.913Z,18.50
2018-07-27T03:34:52.810Z,18.40
2018-07-27T03:37:32.782Z,18.20
2018-07-27T03:40:15.190Z,18.10
2018-07-27T03:42:45.982Z,18.00
2018-07-27T03:45:21.462Z,17.90
2018-07-27T03:47:52.254Z,17.80
2018-07-27T03:50:26.693Z,17.80
2018-07-27T03:53:08.621Z,17.80
2018-07-27T03:55:37.438Z,17.80
2018-07-27T03:58:10.430Z,17.70
2018-07-27T04:00:58.733Z,17.70
2018-07-27T04:03:35.586Z,17.70
2018-07-27T04:06:10.098Z,17.70
2018-07-27T04:08:42.367Z,17.80
2018-07-27T04:11:16.166Z,17.80
2018-07-27T04:13:55.526Z,17.80
2018-07-27T04:16:24.372Z,17.80
2018-07-27T04:18:53.178Z,17.80
2018-07-27T04:21:32.202Z,17.80
2018-07-27T04:24:05.374Z,17.90
2018-07-27T04:26:37.450Z,18.00
2018-07-27T04:29:16.201Z,18.10
2018-07-27T04:31:49.454Z,18.10
2018-07-27T04:34:25.710Z,18.10
2018-07-27T04:37:02.226Z,18.10
2018-07-27T04:39:32.048Z,18.10
2018-07-27T04:42:02.850Z,18.00
2018-07-27T04:44:31.593Z,18.10
2018-07-27T04:47:01.474Z,18.10
2018-07-27T04:49:35.667Z,18.10
2018-07-27T04:52:14.211Z,18.20
2018-07-27T04:54:43.974Z,18.20
2018-07-27T04:57:18.493Z,18.20
2018-07-27T04:59:53.066Z,18.30
2018-07-27T05:02:21.953Z,18.30
2018-07-27T05:04:50.821Z,18.40
2018-07-27T05:07:29.761Z,18.50
2018-07-27T05:09:58.529Z,18.70
2018-07-27T05:12:28.337Z,18.90
2018-07-27T05:15:03.433Z,19.00
2018-07-27T05:17:32.266Z,19.20
2018-07-27T05:20:07.209Z,19.50
2018-07-27T05:25:19.720Z,19.90
2018-07-27T05:27:48.525Z,20.20
2018-07-27T05:32:46.779Z,21.00
2018-07-27T05:35:15.580Z,21.40
2018-07-27T05:37:45.400Z,21.80
2018-07-27T05:40:16.232Z,22.10
2018-07-27T05:42:45.136Z,22.40
2018-07-27T05:45:19.128Z,22.80
2018-07-27T05:47:47.928Z,23.20
2018-07-27T05:50:16.712Z,23.50
2018-07-27T05:52:45.533Z,23.50
2018-07-27T05:55:21.131Z,23.70
2018-07-27T05:57:53.089Z,23.90
2018-07-27T06:00:32.691Z,24.00
2018-07-27T06:03:14.126Z,24.00
2018-07-27T06:05:49.835Z,24.00
2018-07-27T06:08:25.523Z,23.80
2018-07-27T06:10:54.319Z,23.50
2018-07-27T06:13:25.247Z,23.40
2018-07-27T06:15:54.071Z,23.50
2018-07-27T06:18:29.639Z,23.50
2018-07-27T06:21:02.024Z,23.60
2018-07-27T06:23:30.724Z,23.70
2018-07-27T06:26:00.572Z,24.00
2018-07-27T06:28:36.528Z,24.20
2018-07-27T06:31:06.361Z,24.20
2018-07-27T06:33:39.911Z,24.00
2018-07-27T06:36:08.892Z,23.80
2018-07-27T06:38:39.756Z,23.50
2018-07-27T06:41:08.577Z,23.30
2018-07-27T06:46:13.306Z,23.00
2018-07-27T06:48:42.157Z,22.90
2018-07-27T06:51:11.978Z,22.80
2018-07-27T06:53:40.876Z,22.70
2018-07-27T06:56:10.621Z,22.80
2018-07-27T07:01:11.286Z,22.80
2018-07-27T07:06:25.550Z,23.00
2018-07-27T07:08:54.370Z,23.00
2018-07-27T07:11:35.014Z,23.20
2018-07-27T07:14:07.186Z,23.30
2018-07-27T07:16:37.546Z,23.30
2018-07-27T07:19:07.958Z,23.40
2018-07-27T07:21:40.283Z,23.70
2018-07-27T07:24:17.735Z,24.00
2018-07-27T07:26:52.808Z,24.20
2018-07-27T07:29:23.634Z,24.50
2018-07-27T07:32:05.061Z,24.70
2018-07-27T07:34:35.798Z,25.10
2018-07-27T07:37:07.634Z,25.40
2018-07-27T07:39:36.498Z,25.80
2018-07-27T07:42:06.322Z,26.10
2018-07-27T07:44:43.394Z,26.50
2018-07-27T07:49:48.098Z,27.00
2018-07-27T07:52:22.779Z,27.40
2018-07-27T07:54:51.690Z,28.10
2018-07-27T07:57:20.534Z,28.30
2018-07-27T07:59:49.306Z,28.60
2018-07-27T08:02:18.138Z,29.20
2018-07-27T08:04:47.074Z,30.10
2018-07-27T08:07:15.825Z,30.60
2018-07-27T08:09:44.803Z,31.20
2018-07-27T08:12:13.630Z,31.70
2018-07-27T08:14:43.362Z,31.50
2018-07-27T08:17:15.816Z,31.60
2018-07-27T08:19:52.106Z,31.10
2018-07-27T08:22:27.081Z,31.00
2018-07-27T08:25:11.242Z,30.90
2018-07-27T08:27:40.014Z,31.30
2018-07-27T08:30:13.217Z,32.00
2018-07-27T08:33:02.334Z,32.00
2018-07-27T08:35:37.714Z,31.70
2018-07-27T08:38:06.809Z,31.90
2018-07-27T08:40:35.638Z,32.20
2018-07-27T08:43:05.482Z,32.30
2018-07-27T08:45:42.024Z,31.50
2018-07-27T08:48:10.810Z,31.20
2018-07-27T08:50:42.802Z,31.60
2018-07-27T08:53:12.525Z,32.00
2018-07-27T08:55:42.298Z,32.40
2018-07-27T08:58:14.529Z,33.10
2018-07-27T09:00:53.354Z,34.20
2018-07-27T09:03:23.098Z,34.50
2018-07-27T09:05:59.078Z,35.30
2018-07-27T09:08:47.682Z,36.10
2018-07-27T09:11:20.497Z,35.80
2018-07-27T09:13:50.682Z,35.70
2018-07-27T09:16:25.365Z,35.80
2018-07-27T09:18:59.525Z,35.90
2018-07-27T09:21:50.770Z,35.70
2018-07-27T09:24:44.725Z,35.20
2018-07-27T09:27:14.349Z,35.00
2018-07-27T09:29:47.990Z,34.50
2018-07-27T09:32:16.757Z,34.40
2018-07-27T09:34:46.361Z,33.80
2018-07-27T09:37:15.174Z,33.50
2018-07-27T09:39:43.977Z,34.20
2018-07-27T09:42:13.846Z,35.30
2018-07-27T09:44:42.694Z,35.60
2018-07-27T09:47:15.320Z,35.50
2018-07-27T09:49:51.722Z,35.10
2018-07-27T09:52:20.561Z,34.50
2018-07-27T09:54:53.473Z,34.70
2018-07-27T09:57:23.274Z,35.00
2018-07-27T09:59:53.081Z,35.50
2018-07-27T10:02:21.924Z,35.90
2018-07-27T10:04:51.734Z,35.90
2018-07-27T10:07:33.130Z,37.30
2018-07-27T10:10:13.557Z,37.90
2018-07-27T10:12:42.436Z,36.40
2018-07-27T10:15:36.843Z,34.40
2018-07-27T10:18:10.409Z,33.10
2018-07-27T10:20:40.241Z,32.00
2018-07-27T10:23:15.193Z,31.50
2018-07-27T10:25:43.933Z,31.00
2018-07-27T10:28:12.777Z,30.50
2018-07-27T10:30:41.645Z,30.30
2018-07-27T10:33:11.385Z,32.50
2018-07-27T10:35:59.197Z,33.10
2018-07-27T10:38:29.975Z,33.10
2018-07-27T10:41:12.789Z,32.90
2018-07-27T10:43:44.841Z,32.70
2018-07-27T10:49:13.444Z,32.90
2018-07-27T10:51:46.161Z,33.20
2018-07-27T10:54:22.388Z,33.70
2018-07-27T10:56:55.897Z,33.70
2018-07-27T10:59:24.737Z,33.60
2018-07-27T11:01:53.493Z,34.10
2018-07-27T11:04:26.393Z,34.50
2018-07-27T11:07:13.444Z,35.10
2018-07-27T11:09:45.586Z,35.10
2018-07-27T11:12:14.349Z,35.10
2018-07-27T11:14:43.129Z,35.00
2018-07-27T11:17:14.013Z,34.50
2018-07-27T11:19:46.424Z,33.80
2018-07-27T11:22:15.257Z,33.50
2018-07-27T11:27:12.601Z,33.00
2018-07-27T11:29:47.064Z,32.90
2018-07-27T11:32:15.925Z,33.10
2018-07-27T11:34:51.605Z,33.30
2018-07-27T11:37:20.719Z,33.10
2018-07-27T11:39:55.081Z,33.10
2018-07-27T11:42:24.855Z,32.70
2018-07-27T11:44:59.168Z,32.50
2018-07-27T11:47:29.992Z,32.20
2018-07-27T11:49:58.782Z,32.00
2018-07-27T11:52:27.905Z,31.50
2018-07-27T11:55:03.349Z,31.20
2018-07-27T11:57:37.732Z,31.70
2018-07-27T12:00:12.148Z,31.70
2018-07-27T12:02:40.952Z,31.90
2018-07-27T12:05:13.176Z,30.60
2018-07-27T12:07:41.952Z,28.70
2018-07-27T12:10:14.243Z,27.40
2018-07-27T12:12:44.332Z,26.70
2018-07-27T12:15:13.292Z,26.50
2018-07-27T12:18:00.696Z,26.10
2018-07-27T12:20:29.568Z,25.80
2018-07-27T12:23:03.932Z,25.50
2018-07-27T12:25:39.972Z,25.50
2018-07-27T12:28:10.823Z,25.60
2018-07-27T12:30:39.672Z,25.80
2018-07-27T12:35:41.320Z,25.60
2018-07-27T12:38:13.345Z,25.50
2018-07-27T12:40:46.188Z,25.70
2018-07-27T12:43:17.000Z,25.70
2018-07-27T12:45:46.816Z,25.70
2018-07-27T12:48:18.772Z,25.80
2018-07-27T12:50:48.640Z,25.90
2018-07-27T12:53:20.684Z,25.80
2018-07-27T12:55:52.584Z,25.60
2018-07-27T12:58:21.395Z,25.70
2018-07-27T13:00:50.224Z,25.90
2018-07-27T13:03:28.613Z,26.10
2018-07-27T13:05:58.400Z,26.10
2018-07-27T13:08:28.175Z,26.30
2018-07-27T13:10:57.030Z,26.60
2018-07-27T13:13:26.860Z,27.00
2018-07-27T13:15:56.692Z,27.00
2018-07-27T13:18:26.434Z,27.20
2018-07-27T13:20:57.032Z,27.80
2018-07-27T13:23:25.972Z,28.10
2018-07-27T13:28:57.552Z,29.40
2018-07-27T13:32:01.001Z,29.90
2018-07-27T13:37:22.740Z,28.90
2018-07-27T13:39:58.393Z,28.10
2018-07-27T13:42:28.411Z,27.70
2018-07-27T13:44:58.324Z,27.50
2018-07-27T13:47:28.108Z,27.60
2018-07-27T13:50:00.021Z,27.60
2018-07-27T13:52:28.896Z,27.80
2018-07-27T13:54:58.656Z,28.10
2018-07-27T13:57:27.418Z,28.40
2018-07-27T13:59:59.404Z,28.40
2018-07-27T14:02:29.216Z,28.40
2018-07-27T14:05:07.029Z,28.90
2018-07-27T14:07:35.988Z,29.30
2018-07-27T14:10:05.116Z,29.70
2018-07-27T14:12:34.722Z,30.10
2018-07-27T14:15:04.528Z,30.50
2018-07-27T14:17:34.256Z,31.00
2018-07-27T14:20:03.140Z,31.50
2018-07-27T14:22:31.896Z,31.90
2018-07-27T14:25:05.324Z,31.80
2018-07-27T14:27:37.916Z,31.80
2018-07-27T14:30:07.276Z,31.50
2018-07-27T14:32:36.055Z,30.80
2018-07-27T14:35:05.551Z,29.90
2018-07-27T14:37:34.392Z,29.40
2018-07-27T14:40:04.575Z,29.40
2018-07-27T14:42:34.440Z,29.60
2018-07-27T14:45:03.246Z,29.70
2018-07-27T14:47:43.727Z,30.20
2018-07-27T14:50:13.507Z,30.30
2018-07-27T14:52:44.359Z,30.60
2018-07-27T14:55:12.996Z,30.90
2018-07-27T14:57:43.744Z,31.00
2018-07-27T15:00:12.479Z,31.00
2018-07-27T15:02:42.279Z,31.00
2018-07-27T15:05:11.068Z,31.20
2018-07-27T15:07:40.896Z,31.20
2018-07-27T15:10:09.664Z,31.30
2018-07-27T15:12:41.472Z,31.00
2018-07-27T15:17:42.880Z,30.90
2018-07-27T15:20:12.691Z,31.60
2018-07-27T15:22:41.476Z,32.70
2018-07-27T15:25:12.168Z,32.70
2018-07-27T15:27:46.076Z,32.10
2018-07-27T15:30:16.016Z,32.50
2018-07-27T15:32:47.080Z,32.40
2018-07-27T15:35:24.955Z,32.10
2018-07-27T15:38:00.168Z,31.70
2018-07-27T15:40:30.264Z,31.60
2018-07-27T15:42:59.125Z,31.50
2018-07-27T15:45:27.960Z,31.80
2018-07-27T15:47:57.772Z,33.00
2018-07-27T15:50:28.564Z,34.10
2018-07-27T15:53:05.392Z,33.00
2018-07-27T15:55:40.968Z,32.00
2018-07-27T16:00:41.838Z,30.90
2018-07-27T16:03:10.608Z,30.50
2018-07-27T16:05:39.440Z,30.10
2018-07-27T16:08:08.220Z,29.90
2018-07-27T16:10:37.939Z,29.90
2018-07-27T16:13:08.868Z,29.90
2018-07-27T16:15:38.703Z,29.90
2018-07-27T16:18:10.687Z,29.80
2018-07-27T16:20:39.564Z,29.70
2018-07-27T16:23:09.303Z,29.90
2018-07-27T16:25:40.104Z,30.30
2018-07-27T16:28:10.927Z,30.40
2018-07-27T16:30:40.741Z,31.00
2018-07-27T16:33:13.208Z,32.50
2018-07-27T16:35:45.995Z,33.50
2018-07-27T16:38:14.891Z,34.80
2018-07-27T16:40:50.248Z,36.00
2018-07-27T16:43:22.824Z,36.40
2018-07-27T16:45:53.564Z,36.70
2018-07-27T16:48:22.392Z,37.10
2018-07-27T16:50:57.228Z,36.70
2018-07-27T16:53:29.604Z,36.20
2018-07-27T16:55:58.415Z,35.70
2018-07-27T16:58:27.206Z,35.80
2018-07-27T17:01:02.684Z,35.80
2018-07-27T17:03:31.512Z,35.60
2018-07-27T17:06:05.380Z,35.50
2018-07-27T17:08:39.560Z,35.20
2018-07-27T17:11:08.396Z,34.60
2018-07-27T17:13:38.228Z,33.50
2018-07-27T17:16:12.040Z,33.00
2018-07-27T17:18:44.024Z,33.20
2018-07-27T17:21:12.802Z,33.40
2018-07-27T17:23:41.525Z,33.60
2018-07-27T17:26:12.371Z,33.60
2018-07-27T17:28:42.140Z,33.70
2018-07-27T17:31:16.468Z,33.60
2018-07-27T17:33:51.728Z,33.40
2018-07-27T17:36:24.164Z,33.20
2018-07-27T17:38:58.056Z,33.00
2018-07-27T17:41:30.867Z,32.80
2018-07-27T17:44:00.592Z,32.70
2018-07-27T17:46:29.364Z,32.50
2018-07-27T17:48:58.176Z,32.50
2018-07-27T17:51:30.264Z,32.30
2018-07-27T17:54:05.930Z,32.00
2018-07-27T17:56:35.799Z,31.70
2018-07-27T18:01:49.254Z,31.30
2018-07-27T18:04:26.040Z,31.20
2018-07-27T18:06:58.556Z,31.10
2018-07-27T18:09:41.220Z,30.90
2018-07-27T18:12:12.277Z,30.80
2018-07-27T18:14:43.052Z,30.70
2018-07-27T18:17:16.979Z,30.50
2018-07-27T18:19:46.787Z,30.40
2018-07-27T18:22:18.890Z,30.30
2018-07-27T18:27:28.038Z,29.40
2018-07-27T18:29:56.871Z,28.80
2018-07-27T18:32:27.743Z,28.20
2018-07-27T18:35:00.129Z,27.70
2018-07-27T18:37:30.271Z,27.20
2018-07-27T18:40:01.452Z,26.70
2018-07-27T18:42:31.376Z,26.20
2018-07-27T18:45:11.664Z,25.80
2018-07-27T18:47:40.571Z,25.50
2018-07-27T18:50:11.372Z,25.10
2018-07-27T18:55:09.935Z,24.70
2018-07-27T18:57:41.811Z,24.30
2018-07-27T19:00:11.603Z,24.00
2018-07-27T19:02:42.360Z,23.80
2018-07-27T19:05:11.159Z,23.60
2018-07-27T19:07:40.004Z,23.40
2018-07-27T19:10:12.183Z,23.10
2018-07-27T19:12:46.247Z,23.00
2018-07-27T19:15:16.083Z,22.90
2018-07-27T19:17:46.879Z,22.70
2018-07-27T19:20:16.887Z,22.50
2018-07-27T19:22:45.679Z,22.40
2018-07-27T19:25:15.667Z,22.40
2018-07-27T19:27:52.583Z,22.40
2018-07-27T19:30:21.382Z,22.30
2018-07-27T19:32:50.502Z,22.20
2018-07-27T19:35:21.326Z,22.10
2018-07-27T19:37:50.175Z,22.10
2018-07-27T19:40:19.943Z,22.20
2018-07-27T19:42:54.759Z,22.10
2018-07-27T19:45:27.611Z,22.00
2018-07-27T19:47:57.503Z,22.00
2018-07-27T19:50:29.299Z,22.00
2018-07-27T19:52:59.563Z,22.00
2018-07-27T19:55:29.903Z,22.10
2018-07-27T19:58:04.875Z,22.10
2018-07-27T20:03:12.047Z,21.90
2018-07-27T20:05:45.195Z,21.70
2018-07-27T20:08:18.270Z,21.60
2018-07-27T20:10:54.167Z,21.40
2018-07-27T20:13:27.096Z,21.40
2018-07-27T20:15:55.974Z,21.30
2018-07-27T20:18:30.707Z,21.30
2018-07-27T20:21:10.458Z,21.30
2018-07-27T20:23:39.375Z,21.30
2018-07-27T20:26:11.830Z,21.30
2018-07-27T20:28:42.667Z,21.20
2018-07-27T20:31:12.439Z,21.20
2018-07-27T20:33:41.215Z,21.20
2018-07-27T20:36:10.999Z,21.10
2018-07-27T20:38:41.863Z,20.90
2018-07-27T20:41:18.571Z,20.80
2018-07-27T20:43:48.431Z,20.70
2018-07-27T20:46:17.401Z,20.70
2018-07-27T20:48:48.606Z,20.70
2018-07-27T20:51:21.352Z,20.60
2018-07-27T20:53:51.183Z,20.60
2018-07-27T20:56:20.015Z,20.60
2018-07-27T20:58:48.987Z,20.50
2018-07-27T21:01:19.999Z,20.50
2018-07-27T21:03:49.771Z,20.50
2018-07-27T21:06:19.639Z,20.40
2018-07-27T21:08:52.328Z,20.30
2018-07-27T21:13:49.591Z,20.20
2018-07-27T21:16:18.385Z,20.10
2018-07-27T21:18:47.191Z,20.00
2018-07-27T21:21:17.399Z,19.90
2018-07-27T21:23:52.587Z,19.80
2018-07-27T21:26:22.519Z,19.80
2018-07-27T21:28:56.746Z,19.80
2018-07-27T21:31:30.895Z,19.80
2018-07-27T21:34:00.819Z,19.70
2018-07-27T21:36:30.126Z,19.70
2018-07-27T21:38:59.995Z,19.60
2018-07-27T21:41:28.875Z,19.50
2018-07-27T21:44:01.647Z,19.40
2018-07-27T21:46:30.535Z,19.40
2018-07-27T21:48:59.375Z,19.30
2018-07-27T21:51:28.335Z,19.40
2018-07-27T21:53:59.018Z,19.60
2018-07-27T21:56:27.930Z,20.20
2018-07-27T21:58:58.138Z,21.00
2018-07-27T22:01:31.150Z,21.40
2018-07-27T22:04:00.907Z,21.70
2018-07-27T22:06:30.850Z,21.80
2018-07-27T22:09:01.855Z,21.90
2018-07-27T22:11:30.754Z,21.90
2018-07-27T22:16:34.051Z,21.90
2018-07-27T22:19:02.919Z,21.80
2018-07-27T22:21:31.865Z,21.90
2018-07-27T22:24:00.803Z,21.80
2018-07-27T22:26:33.168Z,21.80
2018-07-27T22:29:12.299Z,21.90
2018-07-27T22:31:41.126Z,21.80
2018-07-27T22:34:12.883Z,21.70
2018-07-27T22:36:43.903Z,21.50
2018-07-27T22:39:16.346Z,21.30
2018-07-27T22:41:45.470Z,21.00
2018-07-27T22:44:15.347Z,20.70
2018-07-27T22:46:46.338Z,20.60
2018-07-27T22:49:15.194Z,20.40
2018-07-27T22:51:46.055Z,20.40
2018-07-27T22:54:14.870Z,20.50
2018-07-27T22:56:43.810Z,20.50
2018-07-27T22:59:15.787Z,20.50
2018-07-27T23:01:46.662Z,20.40
2018-07-27T23:04:15.574Z,20.20
2018-07-27T23:06:44.489Z,20.10
2018-07-27T23:09:13.322Z,19.90
2018-07-27T23:11:42.128Z,19.80
2018-07-27T23:14:11.022Z,19.80
2018-07-27T23:16:39.798Z,19.90
2018-07-27T23:19:09.666Z,19.90
2018-07-27T23:21:39.534Z,19.90
2018-07-27T23:24:09.372Z,20.10
2018-07-27T23:26:38.207Z,20.50
2018-07-27T23:29:08.102Z,20.70
2018-07-27T23:31:37.983Z,20.80
2018-07-27T23:34:09.890Z,20.70
2018-07-27T23:36:43.070Z,20.70
2018-07-27T23:39:16.115Z,20.60
2018-07-27T23:41:48.771Z,20.50
2018-07-27T23:44:17.583Z,20.30
2018-07-27T23:46:46.488Z,20.20
2018-07-27T23:49:16.351Z,20.20
2018-07-27T23:51:45.231Z,20.10
2018-07-27T23:56:44.575Z,20.00
2018-07-27T23:59:13.566Z,20.00
